Time;durP1;ratioP1;P1;durP2;ratioP2;P2;SDS_P1;SDS_P2;PMS_P1;PMS_P2;Temp;Humidity;BMP_temperature;BMP_pressure;BME280_temperature;BME280_humidity;BME280_pressure;Samples;Min_cycle;Max_cycle;Signal;HPM_P1;HPM_P2
2023/06/15 01:19:29;;;;;;;;;;;23.20;44.20;;;;;;2322553;19;52134;-24
2023/06/15 01:20:41;;;;;;;;;;;25.10;41.80;;;;;;3051806;19;4489;-23
2023/06/15 01:21:41;;;;;;;;;;;25.00;41.60;;;;;;3053119;19;4589;-23
2023/06/15 01:23:01;;;;;;;;;;;24.80;41.50;;;;;;3052974;19;4678;-23
2023/06/15 01:24:24;;;;;;;;;;;25.00;41.60;;;;;;3054229;19;4486;-23
2023/06/15 01:25:43;;;;;;;;;;;25.00;41.60;;;;;;2950269;19;2004608;-23
2023/06/15 01:26:46;;;;;;;;;;;25.00;41.60;;;;;;3053115;19;4561;-23
2023/06/15 01:27:49;;;;;;;;;;;25.00;41.60;;;;;;3053160;19;4530;-23
2023/06/15 01:28:50;;;;;;;;;;;25.00;41.60;;;;;;3052460;19;4383;-23
2023/06/15 01:29:52;;;;;;;;;;;25.00;41.60;;;;;;3054621;19;4525;-23
2023/06/15 01:30:53;;;;;;;;;;;25.00;41.50;;;;;;3053310;19;4533;-23
2023/06/15 01:31:56;;;;;;;;;;;25.00;41.50;;;;;;3053029;19;4752;-23
2023/06/15 01:32:57;;;;;;;;;;;25.00;41.60;;;;;;3052245;19;4411;-23
2023/06/15 01:34:00;;;;;;;;;;;25.00;41.60;;;;;;3054962;19;4448;-25
2023/06/15 01:35:01;;;;;;;;;;;25.00;41.60;;;;;;3054701;19;4491;-25
2023/06/15 01:36:01;;;;;;;;;;;25.00;41.70;;;;;;3054409;19;4553;-25
2023/06/15 01:37:02;;;;;;;;;;;25.00;41.60;;;;;;3054506;19;4533;-26
2023/06/15 01:38:03;;;;;;;;;;;25.00;41.70;;;;;;3054279;19;4546;-25
2023/06/15 01:39:03;;;;;;;;;;;24.90;41.60;;;;;;3054814;19;4633;-25
2023/06/15 01:40:05;;;;;;;;;;;24.90;42.20;;;;;;3053039;19;4423;-25
2023/06/15 01:41:07;;;;;;;;;;;24.90;41.60;;;;;;3051983;19;4551;-25
2023/06/15 01:42:07;;;;;;;;;;;24.90;41.70;;;;;;3053503;19;4555;-25
2023/06/15 01:43:12;;;;;;;;;;;24.90;41.50;;;;;;3053376;19;1019;-25
2023/06/15 01:44:13;;;;;;;;;;;24.90;41.60;;;;;;3052894;19;4599;-25
2023/06/15 01:45:14;;;;;;;;;;;24.90;41.60;;;;;;3053329;19;4637;-25
2023/06/15 01:46:15;;;;;;;;;;;24.90;41.60;;;;;;3053480;19;4559;-25
2023/06/15 01:47:16;;;;;;;;;;;24.90;42.20;;;;;;3055081;19;4540;-25
2023/06/15 01:48:17;;;;;;;;;;;24.90;41.60;;;;;;3052560;19;4539;-25
2023/06/15 01:49:18;;;;;;;;;;;24.90;41.70;;;;;;3052568;19;4539;-25
2023/06/15 01:50:18;;;;;;;;;;;24.90;41.60;;;;;;3052823;19;4550;-25
2023/06/15 01:51:23;;;;;;;;;;;24.90;42.20;;;;;;3053070;19;4452;-25
2023/06/15 01:52:24;;;;;;;;;;;24.90;41.70;;;;;;3052002;19;4500;-25
2023/06/15 01:53:25;;;;;;;;;;;24.90;41.60;;;;;;3052129;19;4458;-26
2023/06/15 01:54:25;;;;;;;;;;;24.90;41.60;;;;;;3052710;19;4539;-25
2023/06/15 01:55:26;;;;;;;;;;;24.90;41.60;;;;;;3053412;19;4378;-26
2023/06/15 01:56:27;;;;;;;;;;;24.90;41.60;;;;;;3049841;19;4561;-25
2023/06/15 01:57:27;;;;;;;;;;;24.90;41.60;;;;;;3052241;19;4593;-25
2023/06/15 01:58:28;;;;;;;;;;;24.90;41.70;;;;;;3053281;19;5138;-25
2023/06/15 01:59:29;;;;;;;;;;;24.90;41.60;;;;;;3054346;19;4560;-25
2023/06/15 02:00:30;;;;;;;;;;;24.90;41.60;;;;;;3052809;19;4536;-25
2023/06/15 02:01:31;;;;;;;;;;;24.90;41.60;;;;;;3054431;19;4691;-26
2023/06/15 02:02:32;;;;;;;;;;;24.90;41.60;;;;;;3052970;19;4605;-25
2023/06/15 02:03:32;;;;;;;;;;;24.90;41.60;;;;;;3053785;19;4622;-25
2023/06/15 02:04:33;;;;;;;;;;;24.90;41.60;;;;;;3053328;19;4622;-25
2023/06/15 02:05:39;;;;;;;;;;;24.90;41.70;;;;;;3050220;19;4548;-25
2023/06/15 02:06:39;;;;;;;;;;;24.90;41.60;;;;;;3054932;19;4573;-25
2023/06/15 02:07:40;;;;;;;;;;;24.90;41.60;;;;;;3053366;19;4621;-25
2023/06/15 02:08:41;;;;;;;;;;;24.90;41.60;;;;;;3054636;19;4715;-25
2023/06/15 02:09:41;;;;;;;;;;;24.90;41.80;;;;;;3053966;19;4539;-25
2023/06/15 02:10:42;;;;;;;;;;;24.90;41.70;;;;;;3054147;19;4411;-25
2023/06/15 02:11:44;;;;;;;;;;;24.90;41.70;;;;;;3054811;19;4532;-25
2023/06/15 02:12:45;;;;;;;;;;;24.90;41.70;;;;;;3053386;19;4536;-25
2023/06/15 02:13:45;;;;;;;;;;;24.90;41.60;;;;;;3054001;19;4558;-25
2023/06/15 02:14:48;;;;;;;;;;;24.90;41.60;;;;;;3054586;19;4586;-25
2023/06/15 02:15:48;;;;;;;;;;;24.90;41.60;;;;;;3054139;19;4529;-25
2023/06/15 02:16:49;;;;;;;;;;;24.90;41.60;;;;;;3054657;19;4517;-25
2023/06/15 02:17:59;;;;;;;;;;;24.90;41.70;;;;;;3053937;19;4564;-25
2023/06/15 02:19:03;;;;;;;;;;;24.90;41.60;;;;;;3053427;19;4542;-25
2023/06/15 02:20:05;;;;;;;;;;;24.90;41.70;;;;;;3053113;19;4346;-25
2023/06/15 02:21:06;;;;;;;;;;;24.90;41.60;;;;;;3052654;19;4454;-25
2023/06/15 02:22:07;;;;;;;;;;;24.80;41.60;;;;;;3054705;19;4593;-25
2023/06/15 02:23:07;;;;;;;;;;;24.90;41.60;;;;;;3053786;19;4636;-25
2023/06/15 02:24:08;;;;;;;;;;;24.80;41.60;;;;;;3053536;19;4563;-23
2023/06/15 02:25:09;;;;;;;;;;;24.80;41.60;;;;;;3054247;19;4485;-23
2023/06/15 02:26:09;;;;;;;;;;;24.80;41.60;;;;;;3054331;19;937;-23
2023/06/15 02:27:10;;;;;;;;;;;24.80;41.60;;;;;;3053572;19;4492;-23
2023/06/15 02:28:11;;;;;;;;;;;24.80;41.60;;;;;;3054342;19;4521;-23
2023/06/15 02:29:11;;;;;;;;;;;24.80;41.50;;;;;;3053858;19;4379;-23
2023/06/15 02:30:12;;;;;;;;;;;24.80;41.50;;;;;;3054110;19;4565;-23
2023/06/15 02:31:13;;;;;;;;;;;24.80;41.50;;;;;;3054438;19;4382;-23
2023/06/15 02:32:34;;;;;;;;;;;24.80;41.60;;;;;;3054065;19;4368;-23
2023/06/15 02:33:35;;;;;;;;;;;24.80;41.60;;;;;;3054569;19;4541;-23
2023/06/15 02:34:36;;;;;;;;;;;24.80;41.60;;;;;;3054468;19;4628;-25
2023/06/15 02:35:37;;;;;;;;;;;24.80;41.60;;;;;;3054324;19;4550;-25
2023/06/15 02:36:39;;;;;;;;;;;24.80;41.50;;;;;;3054635;19;4504;-25
2023/06/15 02:37:40;;;;;;;;;;;24.80;41.60;;;;;;3054416;19;4570;-26
2023/06/15 02:38:41;;;;;;;;;;;24.80;41.60;;;;;;3053763;19;4518;-25
2023/06/15 02:39:41;;;;;;;;;;;24.80;41.60;;;;;;3053046;19;4619;-25
2023/06/15 02:40:42;;;;;;;;;;;24.80;41.60;;;;;;3054128;19;4594;-25
2023/06/15 02:41:43;;;;;;;;;;;24.80;41.60;;;;;;3054737;19;4528;-25
2023/06/15 02:42:43;;;;;;;;;;;24.80;41.60;;;;;;3053733;19;4504;-25
2023/06/15 02:43:44;;;;;;;;;;;24.80;41.60;;;;;;3053640;19;4549;-25
2023/06/15 02:44:45;;;;;;;;;;;24.80;41.50;;;;;;3054515;19;4510;-23
2023/06/15 02:45:46;;;;;;;;;;;24.80;41.50;;;;;;3053552;19;4522;-23
2023/06/15 02:46:46;;;;;;;;;;;24.80;41.50;;;;;;3054027;19;4575;-23
2023/06/15 02:47:47;;;;;;;;;;;24.80;41.50;;;;;;3054090;19;4581;-23
2023/06/15 02:48:51;;;;;;;;;;;24.80;42.20;;;;;;3054178;19;4388;-23
2023/06/15 02:49:53;;;;;;;;;;;24.70;41.60;;;;;;3053611;19;4585;-23
2023/06/15 02:50:53;;;;;;;;;;;24.70;41.50;;;;;;3054461;19;4462;-23
2023/06/15 02:51:54;;;;;;;;;;;24.70;41.50;;;;;;3052794;19;4479;-23
2023/06/15 02:52:55;;;;;;;;;;;24.70;41.60;;;;;;3052993;19;4515;-23
2023/06/15 02:53:56;;;;;;;;;;;24.70;41.60;;;;;;3053721;19;4616;-23
2023/06/15 02:55:00;;;;;;;;;;;24.70;41.50;;;;;;3053850;19;4348;-23
2023/06/15 02:56:02;;;;;;;;;;;24.70;41.50;;;;;;3053742;19;4563;-22
2023/06/15 02:57:06;;;;;;;;;;;24.70;41.50;;;;;;3053781;19;4525;-23
2023/06/15 02:58:07;;;;;;;;;;;24.70;41.50;;;;;;3053070;19;4481;-23
2023/06/15 02:59:09;;;;;;;;;;;24.70;41.50;;;;;;3051380;19;4540;-23
2023/06/15 03:00:13;;;;;;;;;;;24.70;41.60;;;;;;3053165;19;4537;-23
2023/06/15 03:01:15;;;;;;;;;;;24.70;41.50;;;;;;3053816;19;4391;-23
2023/06/15 03:02:16;;;;;;;;;;;24.70;41.50;;;;;;3052990;19;4424;-23
2023/06/15 03:03:22;;;;;;;;;;;24.70;41.50;;;;;;3053548;19;4370;-23
2023/06/15 03:04:23;;;;;;;;;;;24.70;41.50;;;;;;3053910;19;4551;-23
2023/06/15 03:05:24;;;;;;;;;;;24.70;41.50;;;;;;3053670;19;4726;-23
2023/06/15 03:06:25;;;;;;;;;;;24.70;41.50;;;;;;3054154;19;4551;-23
2023/06/15 03:07:26;;;;;;;;;;;24.70;41.40;;;;;;3053655;19;4552;-23
2023/06/15 03:08:31;;;;;;;;;;;24.70;41.40;;;;;;3053317;19;4552;-23
2023/06/15 03:09:32;;;;;;;;;;;24.70;41.40;;;;;;3053476;19;4557;-23
2023/06/15 03:10:32;;;;;;;;;;;24.70;41.40;;;;;;3053773;19;4440;-23
2023/06/15 03:11:33;;;;;;;;;;;24.70;41.40;;;;;;3053042;19;4265;-23
2023/06/15 03:12:34;;;;;;;;;;;24.70;41.40;;;;;;3053772;19;4407;-23
2023/06/15 03:13:35;;;;;;;;;;;24.70;41.40;;;;;;3054206;19;4502;-23
2023/06/15 03:14:36;;;;;;;;;;;24.70;42.10;;;;;;3052514;19;4396;-22
2023/06/15 03:15:37;;;;;;;;;;;24.70;41.40;;;;;;3052444;19;4549;-23
2023/06/15 03:16:46;;;;;;;;;;;24.60;41.50;;;;;;3052464;19;4607;-23
2023/06/15 03:17:47;;;;;;;;;;;24.70;41.40;;;;;;3052316;19;4521;-23
2023/06/15 03:18:47;;;;;;;;;;;24.70;41.50;;;;;;3053274;19;4632;-23
2023/06/15 03:19:48;;;;;;;;;;;24.60;41.40;;;;;;3052926;19;4638;-23
2023/06/15 03:20:52;;;;;;;;;;;24.60;41.40;;;;;;3052780;19;4565;-23
2023/06/15 03:21:53;;;;;;;;;;;24.60;41.40;;;;;;3053325;19;4536;-23
2023/06/15 03:22:55;;;;;;;;;;;24.60;41.40;;;;;;3053789;19;4525;-24
2023/06/15 03:23:55;;;;;;;;;;;24.60;41.40;;;;;;3053389;19;4332;-23
2023/06/15 03:24:56;;;;;;;;;;;24.60;41.40;;;;;;3054024;19;4498;-23
2023/06/15 03:25:56;;;;;;;;;;;24.60;41.40;;;;;;3052114;19;4323;-23
2023/06/15 03:27:01;;;;;;;;;;;24.60;41.40;;;;;;3053444;19;4467;-23
2023/06/15 03:28:03;;;;;;;;;;;24.60;41.40;;;;;;3052979;19;4493;-23
2023/06/15 03:29:04;;;;;;;;;;;24.60;41.40;;;;;;3053376;19;4300;-23
2023/06/15 03:30:05;;;;;;;;;;;24.70;41.40;;;;;;3053488;19;4427;-23
2023/06/15 03:31:07;;;;;;;;;;;24.60;41.40;;;;;;3052976;19;4487;-24
2023/06/15 03:32:08;;;;;;;;;;;24.60;41.40;;;;;;3054330;19;933;-23
2023/06/15 03:33:08;;;;;;;;;;;24.60;41.40;;;;;;3052444;19;4617;-24
2023/06/15 03:34:10;;;;;;;;;;;24.60;41.40;;;;;;3053101;19;4511;-23
2023/06/15 03:35:12;;;;;;;;;;;24.60;41.40;;;;;;3053699;19;4545;-23
2023/06/15 03:36:16;;;;;;;;;;;24.60;41.40;;;;;;3052374;19;4419;-23
2023/06/15 03:37:17;;;;;;;;;;;24.60;41.40;;;;;;3053038;19;4423;-23
2023/06/15 03:38:17;;;;;;;;;;;24.60;41.40;;;;;;3052931;19;4543;-23
2023/06/15 03:39:18;;;;;;;;;;;24.70;41.40;;;;;;3051612;19;4544;-23
2023/06/15 03:40:20;;;;;;;;;;;24.70;41.30;;;;;;3053212;19;4480;-23
2023/06/15 03:41:20;;;;;;;;;;;24.90;41.30;;;;;;3053051;19;4649;-23
2023/06/15 03:42:21;;;;;;;;;;;24.90;41.10;;;;;;3053534;19;4592;-23
2023/06/15 03:43:22;;;;;;;;;;;24.90;41.00;;;;;;3053604;19;4527;-23
2023/06/15 03:44:22;;;;;;;;;;;25.00;41.00;;;;;;3053969;19;4520;-23
2023/06/15 03:45:23;;;;;;;;;;;25.00;40.90;;;;;;3053201;19;4623;-23
2023/06/15 03:46:24;;;;;;;;;;;25.00;40.90;;;;;;3053084;19;4670;-23
2023/06/15 03:47:25;;;;;;;;;;;25.00;40.80;;;;;;3052379;19;4518;-22
2023/06/15 03:48:25;;;;;;;;;;;25.00;40.80;;;;;;3052764;19;4573;-23
2023/06/15 03:49:26;;;;;;;;;;;25.00;40.80;;;;;;3053389;19;4502;-23
2023/06/15 03:50:27;;;;;;;;;;;25.00;40.80;;;;;;3053102;19;4417;-28
2023/06/15 03:51:28;;;;;;;;;;;25.00;40.70;;;;;;3055747;19;4504;-23
2023/06/15 03:52:32;;;;;;;;;;;25.00;40.70;;;;;;3056775;19;4565;-23
2023/06/15 03:53:33;;;;;;;;;;;25.00;40.70;;;;;;3054849;19;4554;-23
2023/06/15 03:54:33;;;;;;;;;;;25.00;40.80;;;;;;3055020;19;4471;-24
2023/06/15 03:55:36;;;;;;;;;;;25.00;40.80;;;;;;3056754;19;4555;-26
2023/06/15 03:56:37;;;;;;;;;;;25.00;40.80;;;;;;3056929;19;4817;-25
2023/06/15 03:57:37;;;;;;;;;;;24.90;40.80;;;;;;3056836;19;4550;-26
2023/06/15 03:58:38;;;;;;;;;;;24.90;40.90;;;;;;3056040;19;4416;-26
2023/06/15 03:59:39;;;;;;;;;;;24.90;40.80;;;;;;3056233;19;4525;-26
2023/06/15 04:00:40;;;;;;;;;;;24.90;40.80;;;;;;3056471;19;4547;-25
2023/06/15 04:01:42;;;;;;;;;;;24.90;40.80;;;;;;3055880;19;4512;-25
2023/06/15 04:02:43;;;;;;;;;;;24.90;40.80;;;;;;3056007;19;4555;-25
2023/06/15 04:03:44;;;;;;;;;;;24.90;40.80;;;;;;3056103;19;4493;-25
2023/06/15 04:04:44;;;;;;;;;;;24.90;40.80;;;;;;3055921;19;4731;-25
2023/06/15 04:05:46;;;;;;;;;;;24.90;40.90;;;;;;3055397;19;4500;-26
2023/06/15 04:06:47;;;;;;;;;;;24.90;40.80;;;;;;3056094;19;4538;-25
2023/06/15 04:07:47;;;;;;;;;;;25.00;40.80;;;;;;3056316;19;4581;-26
2023/06/15 04:08:48;;;;;;;;;;;25.00;40.70;;;;;;3056475;19;4518;-25
2023/06/15 04:09:49;;;;;;;;;;;25.10;40.60;;;;;;3056690;19;4485;-26
2023/06/15 04:10:50;;;;;;;;;;;25.10;40.60;;;;;;3056394;19;4551;-29
2023/06/15 04:11:51;;;;;;;;;;;25.20;40.50;;;;;;3056955;19;4542;-25
2023/06/15 04:12:51;;;;;;;;;;;25.10;40.50;;;;;;3056551;19;4486;-25
2023/06/15 04:13:52;;;;;;;;;;;25.10;40.40;;;;;;3056545;19;4516;-26
2023/06/15 04:14:53;;;;;;;;;;;25.10;40.40;;;;;;3056070;19;4463;-25
2023/06/15 04:15:53;;;;;;;;;;;25.20;40.50;;;;;;3056280;19;4533;-26
2023/06/15 04:16:54;;;;;;;;;;;25.20;40.50;;;;;;3056071;19;4438;-26
2023/06/15 04:17:55;;;;;;;;;;;25.20;40.60;;;;;;3056384;19;4542;-25
2023/06/15 04:18:57;;;;;;;;;;;25.20;40.60;;;;;;3054898;19;4493;-25
2023/06/15 04:19:57;;;;;;;;;;;25.10;40.50;;;;;;3056613;19;4474;-26
2023/06/15 04:20:58;;;;;;;;;;;25.10;40.50;;;;;;3056479;19;4604;-26
2023/06/15 04:21:58;;;;;;;;;;;25.10;40.50;;;;;;3056556;19;4428;-25
2023/06/15 04:22:59;;;;;;;;;;;25.10;40.50;;;;;;3056011;19;4692;-25
2023/06/15 04:24:00;;;;;;;;;;;25.10;40.50;;;;;;3054754;19;4483;-25
2023/06/15 04:25:01;;;;;;;;;;;25.10;40.60;;;;;;3056268;19;4739;-26
2023/06/15 04:26:02;;;;;;;;;;;25.10;40.60;;;;;;3055315;19;4543;-25
2023/06/15 04:27:03;;;;;;;;;;;25.10;40.60;;;;;;3055082;19;4509;-25
2023/06/15 04:28:05;;;;;;;;;;;25.10;40.60;;;;;;3055809;19;4494;-26
2023/06/15 04:29:06;;;;;;;;;;;25.10;40.60;;;;;;3055633;19;4281;-25
2023/06/15 04:30:07;;;;;;;;;;;25.10;40.60;;;;;;3055934;19;4529;-25
2023/06/15 04:31:12;;;;;;;;;;;25.10;40.60;;;;;;3055839;19;4539;-26
2023/06/15 04:32:14;;;;;;;;;;;25.10;40.60;;;;;;3055882;19;4524;-25
2023/06/15 04:33:15;;;;;;;;;;;25.10;40.60;;;;;;3055115;19;4558;-25
2023/06/15 04:34:15;;;;;;;;;;;25.10;40.70;;;;;;3054761;19;4571;-25
2023/06/15 04:35:17;;;;;;;;;;;25.00;40.60;;;;;;3056194;19;4519;-25
2023/06/15 04:36:18;;;;;;;;;;;25.10;40.60;;;;;;3056092;19;4542;-25
2023/06/15 04:37:18;;;;;;;;;;;25.10;40.60;;;;;;3055809;19;4535;-25
2023/06/15 04:38:20;;;;;;;;;;;25.20;40.70;;;;;;3056331;19;4607;-25
2023/06/15 04:39:22;;;;;;;;;;;25.20;40.40;;;;;;3054759;19;4561;-25
2023/06/15 04:40:23;;;;;;;;;;;25.20;40.40;;;;;;3054726;19;4407;-25
2023/06/15 04:41:24;;;;;;;;;;;25.20;40.40;;;;;;3055700;19;4476;-25
2023/06/15 04:42:26;;;;;;;;;;;25.30;40.40;;;;;;3055844;19;4390;-25
2023/06/15 04:43:27;;;;;;;;;;;25.20;41.00;;;;;;3055333;19;4420;-25
2023/06/15 04:44:28;;;;;;;;;;;25.20;40.30;;;;;;3055698;19;4407;-25
2023/06/15 04:45:29;;;;;;;;;;;25.30;40.40;;;;;;3054917;19;4636;-25
2023/06/15 04:46:29;;;;;;;;;;;25.30;40.40;;;;;;3055400;19;4531;-25
2023/06/15 04:47:30;;;;;;;;;;;25.20;40.40;;;;;;3054634;19;4571;-25
2023/06/15 04:48:32;;;;;;;;;;;25.20;40.40;;;;;;3055452;19;4585;-25
2023/06/15 04:49:32;;;;;;;;;;;25.20;40.40;;;;;;3054245;19;4559;-25
2023/06/15 04:50:35;;;;;;;;;;;25.30;40.40;;;;;;3053575;19;4490;-25
2023/06/15 04:51:38;;;;;;;;;;;25.20;40.40;;;;;;3054480;19;4552;-25
2023/06/15 04:52:40;;;;;;;;;;;25.20;40.40;;;;;;3055445;19;4550;-25
2023/06/15 04:53:43;;;;;;;;;;;25.20;40.40;;;;;;3055288;19;4561;-25
2023/06/15 04:54:44;;;;;;;;;;;25.20;40.40;;;;;;3055217;19;4730;-25
2023/06/15 04:55:47;;;;;;;;;;;25.20;40.40;;;;;;3055391;19;4536;-25
2023/06/15 04:56:48;;;;;;;;;;;25.20;40.50;;;;;;3054629;19;4573;-25
2023/06/15 04:57:49;;;;;;;;;;;25.20;40.50;;;;;;3054741;19;4541;-25
2023/06/15 04:58:50;;;;;;;;;;;25.20;40.60;;;;;;3055575;19;4618;-25
2023/06/15 04:59:51;;;;;;;;;;;25.20;40.60;;;;;;3055395;19;4678;-26
2023/06/15 05:00:51;;;;;;;;;;;25.20;41.30;;;;;;3053275;19;4392;-25
2023/06/15 05:01:52;;;;;;;;;;;25.20;40.60;;;;;;3054889;19;4575;-25
2023/06/15 05:02:53;;;;;;;;;;;25.20;40.60;;;;;;3054701;19;4462;-25
2023/06/15 05:03:54;;;;;;;;;;;25.20;40.60;;;;;;3055494;19;4509;-25
2023/06/15 05:04:56;;;;;;;;;;;25.20;40.70;;;;;;3055061;19;4578;-25
2023/06/15 05:05:56;;;;;;;;;;;25.20;40.60;;;;;;3054032;19;4525;-26
2023/06/15 05:06:57;;;;;;;;;;;25.20;40.70;;;;;;3054893;19;4553;-23
2023/06/15 05:07:58;;;;;;;;;;;25.20;40.70;;;;;;3056140;19;4571;-23
2023/06/15 05:08:58;;;;;;;;;;;25.20;40.70;;;;;;3054343;19;4532;-23
2023/06/15 05:09:59;;;;;;;;;;;25.20;40.70;;;;;;3053240;19;4515;-23
2023/06/15 05:11:00;;;;;;;;;;;25.20;40.70;;;;;;3055459;19;4552;-23
2023/06/15 05:12:01;;;;;;;;;;;25.20;40.70;;;;;;3055350;19;4537;-23
2023/06/15 05:13:03;;;;;;;;;;;25.20;40.70;;;;;;3055108;19;4404;-23
2023/06/15 05:14:04;;;;;;;;;;;25.20;40.70;;;;;;3055711;19;4510;-23
2023/06/15 05:15:05;;;;;;;;;;;25.30;40.60;;;;;;3055786;19;4502;-23
2023/06/15 05:16:06;;;;;;;;;;;25.30;40.50;;;;;;3054579;19;4469;-24
2023/06/15 05:17:07;;;;;;;;;;;25.30;40.50;;;;;;3055470;19;4391;-23
2023/06/15 05:18:07;;;;;;;;;;;25.30;40.50;;;;;;3054640;19;4718;-23
2023/06/15 05:19:08;;;;;;;;;;;25.30;40.40;;;;;;3053421;19;4590;-22
2023/06/15 05:20:09;;;;;;;;;;;25.30;40.50;;;;;;3055969;19;917;-23
2023/06/15 05:21:10;;;;;;;;;;;25.40;40.60;;;;;;3053406;19;4506;-23
2023/06/15 05:22:11;;;;;;;;;;;25.30;40.50;;;;;;3054545;19;4718;-23
2023/06/15 05:23:12;;;;;;;;;;;25.40;40.60;;;;;;3054147;19;4530;-23
2023/06/15 05:24:13;;;;;;;;;;;25.30;40.50;;;;;;3054970;19;4576;-23
2023/06/15 05:25:13;;;;;;;;;;;25.30;40.50;;;;;;3053756;19;4587;-23
2023/06/15 05:26:15;;;;;;;;;;;25.30;40.50;;;;;;3055508;19;4560;-25
2023/06/15 05:27:15;;;;;;;;;;;25.30;40.60;;;;;;3054366;19;4514;-25
2023/06/15 05:28:18;;;;;;;;;;;25.30;40.60;;;;;;3053728;19;4518;-25
2023/06/15 05:29:19;;;;;;;;;;;25.30;40.60;;;;;;3054870;19;4477;-26
2023/06/15 05:30:19;;;;;;;;;;;25.30;41.40;;;;;;3052359;19;4510;-26
2023/06/15 05:31:20;;;;;;;;;;;25.30;40.70;;;;;;3055474;19;4613;-25
2023/06/15 05:32:21;;;;;;;;;;;25.30;40.80;;;;;;3054750;19;4497;-25
2023/06/15 05:33:21;;;;;;;;;;;25.30;40.80;;;;;;3054536;19;4526;-25
2023/06/15 05:34:22;;;;;;;;;;;25.30;40.70;;;;;;3054745;19;4434;-25
2023/06/15 05:35:23;;;;;;;;;;;25.30;40.70;;;;;;3053487;19;4553;-25
2023/06/15 05:36:30;;;;;;;;;;;25.30;40.80;;;;;;3054387;19;4716;-25
2023/06/15 05:37:30;;;;;;;;;;;25.30;40.70;;;;;;3055039;19;4614;-25
2023/06/15 05:38:31;;;;;;;;;;;25.30;40.70;;;;;;3054453;19;4392;-25
2023/06/15 05:39:32;;;;;;;;;;;25.30;40.70;;;;;;3054245;19;4584;-25
2023/06/15 05:40:32;;;;;;;;;;;25.30;40.70;;;;;;3054645;19;4394;-25
2023/06/15 05:41:33;;;;;;;;;;;25.30;40.80;;;;;;3054817;19;4649;-25
2023/06/15 05:42:34;;;;;;;;;;;25.30;40.80;;;;;;3054244;19;4516;-25
2023/06/15 05:43:35;;;;;;;;;;;25.30;40.80;;;;;;3054294;19;4545;-25
2023/06/15 05:44:36;;;;;;;;;;;25.30;40.90;;;;;;3053498;19;4495;-25
2023/06/15 05:45:36;;;;;;;;;;;25.30;40.90;;;;;;3054824;19;4347;-25
2023/06/15 05:46:37;;;;;;;;;;;25.30;40.90;;;;;;3054829;19;4502;-25
2023/06/15 05:47:37;;;;;;;;;;;25.30;40.90;;;;;;3055613;19;4598;-25
2023/06/15 05:48:38;;;;;;;;;;;25.30;41.00;;;;;;3055020;19;4529;-25
2023/06/15 05:49:39;;;;;;;;;;;25.20;41.00;;;;;;3053766;19;4378;-25
2023/06/15 05:50:39;;;;;;;;;;;25.20;41.00;;;;;;3054986;19;4522;-25
2023/06/15 05:51:40;;;;;;;;;;;25.20;41.00;;;;;;3054774;19;4408;-25
2023/06/15 05:52:41;;;;;;;;;;;25.20;41.00;;;;;;3054173;19;4512;-26
2023/06/15 05:53:42;;;;;;;;;;;25.20;41.10;;;;;;3053827;19;4516;-25
2023/06/15 05:54:43;;;;;;;;;;;25.20;41.20;;;;;;3054818;19;4518;-25
2023/06/15 05:55:44;;;;;;;;;;;25.20;41.20;;;;;;3054478;19;4531;-25
2023/06/15 05:56:45;;;;;;;;;;;25.30;41.10;;;;;;3054803;19;4396;-25
2023/06/15 05:57:45;;;;;;;;;;;25.30;41.00;;;;;;3055119;19;4547;-26
2023/06/15 05:58:46;;;;;;;;;;;25.40;41.10;;;;;;3051728;19;4452;-25
2023/06/15 05:59:47;;;;;;;;;;;25.40;41.00;;;;;;3054379;19;4508;-25
2023/06/15 06:00:47;;;;;;;;;;;25.40;41.00;;;;;;3054363;19;4391;-25
2023/06/15 06:01:48;;;;;;;;;;;25.40;41.00;;;;;;3055022;19;4564;-26
2023/06/15 06:02:48;;;;;;;;;;;25.40;41.00;;;;;;3054926;19;4548;-26
2023/06/15 06:03:49;;;;;;;;;;;25.40;41.00;;;;;;3054560;19;4516;-25
2023/06/15 06:04:50;;;;;;;;;;;25.40;41.00;;;;;;3054907;19;4529;-25
2023/06/15 06:05:50;;;;;;;;;;;25.40;41.00;;;;;;3053785;19;4524;-25
2023/06/15 06:06:51;;;;;;;;;;;25.40;41.00;;;;;;3054824;19;4533;-26
2023/06/15 06:07:52;;;;;;;;;;;25.40;41.10;;;;;;3054488;19;4718;-25
2023/06/15 06:08:52;;;;;;;;;;;25.40;41.10;;;;;;3054172;19;4515;-26
2023/06/15 06:09:53;;;;;;;;;;;25.40;41.20;;;;;;3055072;19;4526;-25
2023/06/15 06:10:54;;;;;;;;;;;25.40;41.20;;;;;;3052925;19;4499;-25
2023/06/15 06:11:55;;;;;;;;;;;25.40;41.20;;;;;;3053977;19;4525;-26
2023/06/15 06:12:56;;;;;;;;;;;25.40;41.20;;;;;;3054308;19;4482;-25
2023/06/15 06:13:56;;;;;;;;;;;25.40;41.20;;;;;;3053262;19;4481;-25
2023/06/15 06:14:57;;;;;;;;;;;25.40;41.30;;;;;;3053741;19;4337;-25
2023/06/15 06:15:57;;;;;;;;;;;25.40;41.30;;;;;;3054955;19;4349;-26
2023/06/15 06:16:58;;;;;;;;;;;25.40;41.30;;;;;;3053987;19;4641;-26
2023/06/15 06:18:01;;;;;;;;;;;25.40;41.40;;;;;;3054474;19;4517;-25
2023/06/15 06:19:01;;;;;;;;;;;25.40;41.40;;;;;;3054487;19;4447;-25
2023/06/15 06:20:03;;;;;;;;;;;25.40;41.40;;;;;;3054827;19;4512;-25
2023/06/15 06:21:04;;;;;;;;;;;25.40;41.40;;;;;;3053781;19;4453;-26
2023/06/15 06:22:05;;;;;;;;;;;25.40;41.40;;;;;;3053251;19;4695;-26
2023/06/15 06:23:05;;;;;;;;;;;25.40;41.50;;;;;;3053607;19;4494;-26
2023/06/15 06:24:07;;;;;;;;;;;25.40;41.50;;;;;;3051279;19;4637;-26
2023/06/15 06:25:08;;;;;;;;;;;25.40;41.50;;;;;;3051239;19;940;-26
2023/06/15 06:26:09;;;;;;;;;;;25.40;41.60;;;;;;3053119;19;4576;-26
2023/06/15 06:27:10;;;;;;;;;;;25.40;41.50;;;;;;3052536;19;4584;-26
2023/06/15 06:28:10;;;;;;;;;;;25.40;41.60;;;;;;3053048;19;4592;-26
2023/06/15 06:29:11;;;;;;;;;;;25.40;41.60;;;;;;3054562;19;4595;-26
2023/06/15 06:30:12;;;;;;;;;;;25.30;41.60;;;;;;3054004;19;4525;-26
2023/06/15 06:31:12;;;;;;;;;;;25.40;41.70;;;;;;3053980;19;4509;-26
2023/06/15 06:32:13;;;;;;;;;;;25.30;41.70;;;;;;3052359;19;4561;-26
2023/06/15 06:33:13;;;;;;;;;;;25.40;41.80;;;;;;3054288;19;996;-26
2023/06/15 06:34:14;;;;;;;;;;;25.30;41.70;;;;;;3052680;19;4492;-26
2023/06/15 06:35:15;;;;;;;;;;;25.40;41.70;;;;;;3052888;19;4541;-26
2023/06/15 06:36:15;;;;;;;;;;;25.30;41.70;;;;;;3054474;19;4547;-24
2023/06/15 06:37:16;;;;;;;;;;;25.30;41.70;;;;;;3052506;19;4479;-24
2023/06/15 06:38:17;;;;;;;;;;;25.30;41.70;;;;;;3052958;19;4552;-24
2023/06/15 06:39:18;;;;;;;;;;;25.30;41.80;;;;;;3053709;19;4604;-23
2023/06/15 06:40:18;;;;;;;;;;;25.30;41.70;;;;;;3054138;19;4375;-24
2023/06/15 06:41:20;;;;;;;;;;;25.30;41.90;;;;;;3052905;19;4623;-24
2023/06/15 06:42:20;;;;;;;;;;;25.30;41.90;;;;;;3052460;19;4611;-23
2023/06/15 06:43:21;;;;;;;;;;;25.30;41.90;;;;;;3051144;19;4640;-24
2023/06/15 06:44:22;;;;;;;;;;;25.30;41.90;;;;;;3053952;19;4613;-23
2023/06/15 06:45:22;;;;;;;;;;;25.30;42.00;;;;;;3051348;19;4458;-24
2023/06/15 06:46:23;;;;;;;;;;;25.30;42.00;;;;;;3053453;19;4617;-23
2023/06/15 06:47:24;;;;;;;;;;;25.20;42.60;;;;;;3053701;19;4580;-24
2023/06/15 06:48:24;;;;;;;;;;;25.30;42.00;;;;;;3053031;19;4613;-23
2023/06/15 06:49:25;;;;;;;;;;;25.30;42.00;;;;;;3051572;19;4513;-24
2023/06/15 06:50:26;;;;;;;;;;;25.30;42.00;;;;;;3053333;19;4537;-24
2023/06/15 06:51:26;;;;;;;;;;;25.20;42.10;;;;;;3052842;19;4569;-23
2023/06/15 06:52:27;;;;;;;;;;;25.20;41.90;;;;;;3053115;19;4666;-24
2023/06/15 06:53:28;;;;;;;;;;;25.20;42.10;;;;;;3051752;19;4545;-24
2023/06/15 06:54:29;;;;;;;;;;;25.20;42.10;;;;;;3052775;19;4520;-24
2023/06/15 06:55:30;;;;;;;;;;;25.20;42.10;;;;;;3051387;19;4416;-23
2023/06/15 06:56:30;;;;;;;;;;;25.20;42.10;;;;;;3052131;19;4695;-23
2023/06/15 06:57:31;;;;;;;;;;;25.20;42.10;;;;;;3050500;19;4516;-24
2023/06/15 06:58:32;;;;;;;;;;;25.20;42.20;;;;;;3051021;19;4455;-23
2023/06/15 06:59:32;;;;;;;;;;;25.20;42.10;;;;;;3053250;19;4550;-24
2023/06/15 07:00:33;;;;;;;;;;;25.20;42.10;;;;;;3052485;19;4623;-24
2023/06/15 07:01:34;;;;;;;;;;;25.20;42.20;;;;;;3054333;19;4684;-23
2023/06/15 07:02:34;;;;;;;;;;;25.20;42.20;;;;;;3054236;19;4806;-23
2023/06/15 07:03:37;;;;;;;;;;;25.20;42.20;;;;;;3052933;19;4783;-27
2023/06/15 07:04:37;;;;;;;;;;;25.20;42.30;;;;;;3053846;19;4395;-24
2023/06/15 07:05:38;;;;;;;;;;;25.20;42.30;;;;;;3053008;19;4492;-28
2023/06/15 07:06:39;;;;;;;;;;;25.20;42.40;;;;;;3050580;19;4536;-24
2023/06/15 07:07:39;;;;;;;;;;;25.20;42.40;;;;;;3049508;19;4542;-23
2023/06/15 07:08:40;;;;;;;;;;;25.20;42.90;;;;;;3050200;19;4359;-23
2023/06/15 07:09:41;;;;;;;;;;;25.20;43.30;;;;;;3052979;19;4514;-23
2023/06/15 07:10:41;;;;;;;;;;;25.20;44.40;;;;;;3050977;19;4509;-23
2023/06/15 07:11:42;;;;;;;;;;;25.20;44.10;;;;;;3052187;19;4380;-23
2023/06/15 07:12:43;;;;;;;;;;;25.20;44.00;;;;;;3051368;19;4562;-24
2023/06/15 07:13:43;;;;;;;;;;;25.20;43.60;;;;;;3052365;19;4545;-23
2023/06/15 07:14:44;;;;;;;;;;;25.20;43.50;;;;;;3053002;19;4556;-23
2023/06/15 07:15:45;;;;;;;;;;;25.30;43.60;;;;;;3052330;19;4439;-23
2023/06/15 07:16:45;;;;;;;;;;;25.30;43.50;;;;;;3051802;19;4531;-23
2023/06/15 07:17:46;;;;;;;;;;;25.30;43.30;;;;;;3051547;19;4522;-23
2023/06/15 07:18:47;;;;;;;;;;;25.30;43.30;;;;;;3052110;19;4542;-23
2023/06/15 07:19:47;;;;;;;;;;;25.30;43.20;;;;;;3053119;19;4395;-23
2023/06/15 07:20:53;;;;;;;;;;;25.30;43.10;;;;;;3053267;19;4580;-23
2023/06/15 07:21:54;;;;;;;;;;;25.40;43.30;;;;;;3052460;19;4434;-23